createdAt,value
2022-08-24T00:00:47.465Z,114490.28
2022-08-24T00:02:51.507Z,114490.28
2022-08-24T00:04:59.075Z,114490.28
2022-08-24T00:07:05.028Z,114490.28
2022-08-24T00:09:19.569Z,114490.28
2022-08-24T00:11:26.264Z,114490.28
2022-08-24T00:13:39.240Z,114490.28
2022-08-24T00:15:48.230Z,114490.28
2022-08-24T00:17:52.674Z,114490.28
2022-08-24T00:20:07.484Z,114490.28
2022-08-24T00:22:14.706Z,114490.28
2022-08-24T00:24:18.453Z,114490.28
2022-08-24T00:26:30.264Z,114490.28
2022-08-24T00:28:45.753Z,114490.28
2022-08-24T00:30:51.626Z,114490.28
2022-08-24T00:32:57.704Z,114490.28
2022-08-24T00:35:03.691Z,114490.28
2022-08-24T00:37:12.204Z,114490.28
2022-08-24T00:39:18.266Z,114490.28
2022-08-24T00:41:29.935Z,114490.28
2022-08-24T00:43:38.021Z,114490.28
2022-08-24T00:45:48.450Z,114490.28
2022-08-24T00:48:01.488Z,114490.28
2022-08-24T00:50:09.613Z,114490.28
2022-08-24T00:52:24.048Z,114490.28
2022-08-24T00:54:34.670Z,114490.28
2022-08-24T00:56:45.006Z,114490.28
2022-08-24T00:58:57.094Z,114490.28
2022-08-24T01:01:04.770Z,114490.28
2022-08-24T01:03:11.422Z,114490.28
2022-08-24T01:05:20.404Z,114490.28
2022-08-24T01:07:31.642Z,114490.28
2022-08-24T01:09:41.178Z,114490.28
2022-08-24T01:11:46.830Z,114490.28
2022-08-24T01:13:59.020Z,114490.28
2022-08-24T01:16:09.637Z,114490.28
2022-08-24T01:18:34.641Z,114490.28
2022-08-24T01:20:54.747Z,114490.28
2022-08-24T01:23:05.887Z,114490.28
2022-08-24T01:25:14.362Z,114490.28
2022-08-24T01:27:27.825Z,114490.28
2022-08-24T01:29:35.462Z,114490.28
2022-08-24T01:31:41.383Z,114490.28
2022-08-24T01:33:56.529Z,114490.28
2022-08-24T01:36:28.799Z,114490.28
2022-08-24T01:38:42.229Z,114490.28
2022-08-24T01:40:57.397Z,114490.28
2022-08-24T01:43:02.355Z,114490.28
2022-08-24T01:45:16.371Z,114490.28
2022-08-24T01:47:22.256Z,114490.28
2022-08-24T01:49:34.344Z,114490.28
2022-08-24T01:51:40.433Z,114490.28
2022-08-24T01:53:53.210Z,114490.28
2022-08-24T01:56:02.700Z,114490.28
2022-08-24T01:58:08.416Z,114490.28
2022-08-24T02:00:20.816Z,114490.28
2022-08-24T02:02:27.216Z,114490.28
2022-08-24T02:04:36.255Z,114490.28
2022-08-24T02:06:53.010Z,114490.28
2022-08-24T02:11:22.756Z,114490.28
2022-08-24T02:13:30.105Z,114490.28
2022-08-24T02:15:45.781Z,114490.28
2022-08-24T02:17:56.318Z,114490.28
2022-08-24T02:20:07.447Z,114490.28
2022-08-24T02:22:12.283Z,114490.28
2022-08-24T02:24:19.521Z,114490.28
2022-08-24T02:26:23.671Z,114490.28
2022-08-24T02:28:32.066Z,114490.28
2022-08-24T02:30:37.143Z,114490.28
2022-08-24T02:32:41.786Z,114490.28
2022-08-24T02:34:49.832Z,114490.28
2022-08-24T02:37:00.245Z,114490.28
2022-08-24T02:39:05.706Z,114490.28
2022-08-24T02:41:13.210Z,114490.28
2022-08-24T02:43:19.387Z,114490.28
2022-08-24T02:45:23.371Z,114490.28
2022-08-24T02:47:38.314Z,114490.28
2022-08-24T02:49:46.399Z,114490.28
2022-08-24T02:51:59.793Z,114490.28
2022-08-24T02:54:08.920Z,114490.28
2022-08-24T02:56:17.607Z,114490.28
2022-08-24T02:58:25.425Z,114490.28
2022-08-24T03:00:32.264Z,114490.28
2022-08-24T03:02:36.812Z,114490.28
2022-08-24T03:04:42.195Z,114490.28
2022-08-24T03:06:51.127Z,114490.28
2022-08-24T03:09:00.052Z,114490.28
2022-08-24T03:11:05.081Z,114490.28
2022-08-24T03:13:18.692Z,114490.28
2022-08-24T03:15:31.024Z,114490.28
2022-08-24T03:17:34.853Z,114490.28
2022-08-24T03:19:39.855Z,114490.28
2022-08-24T03:21:47.128Z,114490.28
2022-08-24T03:23:53.524Z,114490.28
2022-08-24T03:25:59.576Z,114490.28
2022-08-24T03:28:11.035Z,114490.28
2022-08-24T03:30:19.155Z,114490.28
2022-08-24T03:32:25.265Z,114490.28
2022-08-24T03:34:33.606Z,114490.28
2022-08-24T03:36:39.725Z,114490.28
2022-08-24T03:38:46.426Z,114490.28
2022-08-24T03:40:50.592Z,114490.28
2022-08-24T03:42:56.258Z,114490.28
2022-08-24T03:45:03.599Z,114490.28
2022-08-24T03:47:29.765Z,114490.28
2022-08-24T03:49:36.038Z,114490.28
2022-08-24T03:51:42.856Z,114490.28
2022-08-24T03:53:47.341Z,114490.28
2022-08-24T03:55:54.140Z,114490.28
2022-08-24T03:58:03.313Z,114490.28
2022-08-24T04:00:13.489Z,114490.28
2022-08-24T04:02:32.927Z,114490.28
2022-08-24T04:04:40.594Z,114490.28
2022-08-24T04:06:47.975Z,114490.28
2022-08-24T04:08:56.233Z,114490.28
2022-08-24T04:11:00.295Z,114490.28
2022-08-24T04:13:08.239Z,114490.28
2022-08-24T04:15:14.420Z,114490.28
2022-08-24T04:17:21.036Z,114490.28
2022-08-24T04:19:26.854Z,114490.28
2022-08-24T04:21:35.376Z,114490.28
2022-08-24T04:23:47.746Z,114490.28
2022-08-24T04:25:54.143Z,114490.28
2022-08-24T04:27:59.181Z,114490.28
2022-08-24T04:30:05.649Z,114490.28
2022-08-24T04:32:23.556Z,114490.28
2022-08-24T04:34:32.116Z,114490.28
2022-08-24T04:36:39.374Z,114490.28
2022-08-24T04:38:43.653Z,114490.28
2022-08-24T04:41:17.113Z,114490.28
2022-08-24T04:43:34.880Z,114490.28
2022-08-24T04:45:43.925Z,114490.28
2022-08-24T04:47:53.652Z,114490.28
2022-08-24T04:49:58.667Z,114490.28
2022-08-24T04:52:02.947Z,114490.28
2022-08-24T04:54:09.828Z,114490.28
2022-08-24T04:56:16.397Z,114490.28
2022-08-24T04:58:20.698Z,114490.28
2022-08-24T05:00:27.218Z,114490.28
2022-08-24T05:02:34.894Z,114490.28
2022-08-24T05:04:42.450Z,114490.28
2022-08-24T05:06:46.051Z,114490.28
2022-08-24T05:08:50.144Z,114490.28
2022-08-24T05:10:53.908Z,114490.28
2022-08-24T05:12:58.138Z,114490.28
2022-08-24T05:15:01.691Z,114490.28
2022-08-24T05:17:14.606Z,114490.28
2022-08-24T05:19:25.609Z,114490.28
2022-08-24T05:21:32.210Z,114490.28
2022-08-24T05:23:44.079Z,114490.28
2022-08-24T05:25:53.626Z,114490.28
2022-08-24T05:27:58.078Z,114490.28
2022-08-24T05:30:02.247Z,114490.28
2022-08-24T05:32:08.765Z,114490.28
2022-08-24T05:34:13.112Z,114490.28
2022-08-24T05:36:28.111Z,114490.28
2022-08-24T05:38:33.042Z,114490.28
2022-08-24T05:40:38.822Z,114490.28
2022-08-24T05:42:43.171Z,114490.28
2022-08-24T05:44:47.047Z,114490.28
2022-08-24T05:47:14.358Z,114490.28
2022-08-24T05:49:18.364Z,114490.28
2022-08-24T05:51:23.191Z,114490.28
2022-08-24T05:53:34.753Z,114490.28
2022-08-24T05:55:42.947Z,114490.28
2022-08-24T05:57:46.676Z,114490.28
2022-08-24T05:59:56.585Z,114490.28
2022-08-24T06:02:00.229Z,114490.28
2022-08-24T06:04:06.088Z,114490.28
2022-08-24T06:06:10.071Z,114490.28
2022-08-24T06:08:16.633Z,114490.28
2022-08-24T06:10:36.259Z,114490.28
2022-08-24T06:12:41.975Z,114490.28
2022-08-24T06:14:48.897Z,114490.28
2022-08-24T06:16:57.416Z,114490.28
2022-08-24T06:19:03.057Z,114490.28
2022-08-24T06:21:08.106Z,114490.28
2022-08-24T06:23:14.433Z,114490.28
2022-08-24T06:25:44.291Z,114490.28
2022-08-24T06:27:47.795Z,114490.28
2022-08-24T06:29:55.703Z,114490.28
2022-08-24T06:32:28.099Z,114490.28
2022-08-24T06:34:34.955Z,114490.28
2022-08-24T06:36:39.260Z,114490.28
2022-08-24T06:38:45.472Z,114490.28
2022-08-24T06:40:51.035Z,114490.28
2022-08-24T06:42:56.788Z,114490.28
2022-08-24T06:45:13.125Z,114490.28
2022-08-24T06:47:21.217Z,114490.28
2022-08-24T06:49:30.622Z,114490.28
2022-08-24T06:51:34.478Z,114490.28
2022-08-24T06:53:38.364Z,114490.28
2022-08-24T06:55:47.730Z,114490.28
2022-08-24T06:57:52.711Z,114490.28
2022-08-24T06:59:57.262Z,114490.28
2022-08-24T07:02:01.986Z,114490.28
2022-08-24T07:04:06.513Z,114490.28
2022-08-24T07:06:28.531Z,114490.28
2022-08-24T07:08:36.219Z,114490.28
2022-08-24T07:10:40.440Z,114490.28
2022-08-24T07:12:47.076Z,114490.28
2022-08-24T07:14:51.794Z,114490.28
2022-08-24T07:16:57.655Z,114490.28
2022-08-24T07:19:03.622Z,114490.28
2022-08-24T07:21:11.245Z,114490.28
2022-08-24T07:23:22.258Z,114490.28
2022-08-24T07:25:49.574Z,114490.28
2022-08-24T07:27:57.305Z,114490.28
2022-08-24T07:30:25.318Z,114490.28
2022-08-24T07:32:25.763Z,114490.28
2022-08-24T07:34:32.195Z,114490.28
2022-08-24T07:36:39.869Z,114490.28
2022-08-24T07:38:47.846Z,114490.28
2022-08-24T07:43:17.183Z,114490.28
2022-08-24T07:45:21.140Z,114490.28
2022-08-24T07:47:38.565Z,114490.28
2022-08-24T07:49:58.459Z,114490.28
2022-08-24T07:52:03.061Z,114490.28
2022-08-24T07:54:07.107Z,114490.28
2022-08-24T07:56:19.457Z,114490.28
2022-08-24T07:58:25.703Z,114490.28
2022-08-24T08:00:29.436Z,114490.28
2022-08-24T08:02:38.900Z,114490.28
2022-08-24T08:04:45.236Z,114490.28
2022-08-24T08:06:50.419Z,114490.28
2022-08-24T08:08:54.884Z,114490.28
2022-08-24T08:10:58.930Z,114490.28
2022-08-24T08:13:03.581Z,114490.28
2022-08-24T08:15:10.399Z,114490.28
2022-08-24T08:17:18.645Z,114490.28
2022-08-24T08:19:26.045Z,114490.28
2022-08-24T08:21:54.166Z,114490.28
2022-08-24T08:24:16.114Z,114490.28
2022-08-24T08:26:22.703Z,114490.28
2022-08-24T08:28:46.025Z,114490.28
2022-08-24T08:30:50.314Z,114490.28
2022-08-24T08:32:54.808Z,114490.28
2022-08-24T08:35:02.111Z,114490.28
2022-08-24T08:37:08.236Z,114490.28
2022-08-24T08:39:13.623Z,114490.28
2022-08-24T08:41:24.507Z,114490.28
2022-08-24T08:43:42.240Z,114490.28
2022-08-24T08:45:58.697Z,114490.28
2022-08-24T08:48:43.680Z,114490.28
2022-08-24T08:51:06.745Z,114490.28
2022-08-24T08:53:33.423Z,114490.28
2022-08-24T08:55:47.162Z,114490.28
2022-08-24T08:58:01.672Z,114490.28
2022-08-24T09:00:06.696Z,114490.28
2022-08-24T09:02:31.027Z,114490.28
2022-08-24T09:04:43.908Z,114490.28
2022-08-24T09:06:48.676Z,114490.28
2022-08-24T09:09:14.125Z,114490.28
2022-08-24T09:11:26.919Z,113717.25
2022-08-24T09:13:45.622Z,112924.34
2022-08-24T09:16:11.497Z,112515.94
2022-08-24T09:18:39.518Z,112427.88
2022-08-24T09:20:51.843Z,112373.81
2022-08-24T09:23:07.377Z,110570.59
2022-08-24T09:25:27.178Z,109858.34
2022-08-24T09:27:46.097Z,108644.19
2022-08-24T09:29:59.990Z,106612.72
2022-08-24T09:32:13.995Z,103036.16
2022-08-24T09:34:26.545Z,100891.72
2022-08-24T09:36:42.257Z,100278.94
2022-08-24T09:38:48.137Z,99823.91
2022-08-24T09:40:54.234Z,98177.84
2022-08-24T09:43:17.743Z,97762.94
2022-08-24T09:45:51.371Z,95214.63
2022-08-24T09:48:05.300Z,84896.28
2022-08-24T09:50:24.504Z,81869.28
2022-08-24T09:52:40.485Z,80607.88
2022-08-24T09:54:56.036Z,76540.34
2022-08-24T09:57:20.126Z,76796.31
2022-08-24T09:59:39.114Z,72312.41
2022-08-24T10:01:43.754Z,70637.94
2022-08-24T10:04:02.577Z,68886.94
2022-08-24T10:06:12.256Z,64562.25
2022-08-24T10:08:18.945Z,66390.53
2022-08-24T10:10:38.596Z,67576.19
2022-08-24T10:12:51.770Z,69427.63
2022-08-24T10:15:05.454Z,75266.75
2022-08-24T10:17:21.452Z,73527.59
2022-08-24T10:19:41.894Z,65359.56
2022-08-24T10:21:56.200Z,63581.22
2022-08-24T10:24:20.195Z,63515.94
2022-08-24T10:26:41.868Z,62841.63
2022-08-24T10:29:06.188Z,61313.44
2022-08-24T10:31:13.052Z,59070.66
2022-08-24T10:33:16.531Z,59299.81
2022-08-24T10:35:39.110Z,59072.63
2022-08-24T10:38:26.145Z,58608.41
2022-08-24T10:40:41.472Z,57129.25
2022-08-24T10:43:15.554Z,56771.88
2022-08-24T10:45:32.344Z,55688.13
2022-08-24T10:47:37.808Z,55544.06
2022-08-24T10:50:01.095Z,55101.97
2022-08-24T10:52:23.157Z,54237.69
2022-08-24T10:54:26.859Z,50620.75
2022-08-24T10:56:51.717Z,50382.25
2022-08-24T10:59:03.502Z,50463.06
2022-08-24T11:01:36.465Z,50435.47
2022-08-24T11:03:50.004Z,50459.13
2022-08-24T11:05:55.243Z,50459.13
2022-08-24T11:08:00.271Z,50386.19
2022-08-24T11:10:07.744Z,50388.16
2022-08-24T11:12:26.793Z,50311.28
2022-08-24T11:14:31.423Z,50329.03
2022-08-24T11:16:43.066Z,50295.50
2022-08-24T11:18:55.967Z,50394.06
2022-08-24T11:21:01.767Z,50612.88
2022-08-24T11:23:29.617Z,50604.97
2022-08-24T11:25:58.816Z,51188.50
2022-08-24T11:28:22.580Z,51679.47
2022-08-24T11:30:28.785Z,51795.78
2022-08-24T11:32:52.883Z,51720.88
2022-08-24T11:34:57.476Z,52184.25
2022-08-24T11:37:02.592Z,52478.09
2022-08-24T11:39:23.310Z,52882.44
2022-08-24T11:41:34.870Z,53247.34
2022-08-24T11:44:01.330Z,53497.84
2022-08-24T11:46:05.528Z,53484.03
2022-08-24T11:48:29.863Z,53527.44
2022-08-24T11:50:39.661Z,53703.03
2022-08-24T11:53:12.178Z,53578.72
2022-08-24T11:55:24.235Z,53864.78
2022-08-24T11:57:48.564Z,53785.88
2022-08-24T11:59:52.981Z,53758.25
2022-08-24T12:02:01.969Z,53768.13
2022-08-24T12:04:24.594Z,53732.59
2022-08-24T12:06:38.106Z,53712.88
2022-08-24T12:09:08.482Z,53890.44
2022-08-24T12:11:20.054Z,53837.16
2022-08-24T12:13:24.008Z,54010.78
2022-08-24T12:15:38.380Z,54251.50
2022-08-24T12:17:46.894Z,54214.00
2022-08-24T12:19:52.999Z,54652.03
2022-08-24T12:21:59.024Z,55149.34
2022-08-24T12:24:23.398Z,56175.69
2022-08-24T12:26:47.454Z,57119.38
2022-08-24T12:28:54.635Z,57885.56
2022-08-24T12:31:00.452Z,61416.22
2022-08-24T12:33:08.223Z,63339.94
2022-08-24T12:35:14.890Z,70188.25
2022-08-24T12:37:29.530Z,70386.34
2022-08-24T12:39:56.215Z,70796.44
2022-08-24T12:42:08.755Z,71176.88
2022-08-24T12:44:15.344Z,72310.44
2022-08-24T12:46:22.654Z,72463.06
2022-08-24T12:48:46.584Z,72459.09
2022-08-24T12:50:53.939Z,73188.56
2022-08-24T12:53:12.335Z,72570.09
2022-08-24T12:55:18.623Z,79775.78
2022-08-24T12:57:25.869Z,79041.13
2022-08-24T12:59:32.773Z,76500.66
2022-08-24T13:01:39.413Z,77877.88
2022-08-24T13:03:45.097Z,77306.28
2022-08-24T13:05:57.435Z,76949.09
2022-08-24T13:08:19.603Z,77028.47
2022-08-24T13:10:27.212Z,77463.06
2022-08-24T13:12:40.717Z,77510.72
2022-08-24T13:14:46.444Z,79237.69
2022-08-24T13:16:59.383Z,79364.75
2022-08-24T13:19:35.255Z,80365.59
2022-08-24T13:21:42.390Z,80619.81
2022-08-24T13:23:46.391Z,84476.78
2022-08-24T13:25:53.796Z,87501.75
2022-08-24T13:28:08.114Z,90254.22
2022-08-24T13:30:23.169Z,90853.53
2022-08-24T13:32:33.553Z,91184.09
2022-08-24T13:34:40.301Z,91223.91
2022-08-24T13:37:04.612Z,100835.81
2022-08-24T13:39:27.248Z,103467.56
2022-08-24T13:41:30.790Z,106724.66
2022-08-24T13:43:43.842Z,107456.38
2022-08-24T13:45:52.658Z,110298.47
2022-08-24T13:48:08.276Z,111445.09
2022-08-24T13:50:15.774Z,111399.06
2022-08-24T13:52:37.585Z,112207.69
2022-08-24T13:55:03.998Z,113759.28
2022-08-24T13:57:18.069Z,114306.00
2022-08-24T13:59:41.564Z,114404.16
2022-08-24T14:01:59.830Z,114490.28
2022-08-24T14:04:16.664Z,114490.28
2022-08-24T14:06:21.493Z,114490.28
2022-08-24T14:08:45.452Z,114490.28
2022-08-24T14:10:53.750Z,114490.28
2022-08-24T14:13:16.490Z,114490.28
2022-08-24T14:15:27.524Z,114490.28
2022-08-24T14:17:59.579Z,114490.28
2022-08-24T14:20:22.349Z,114490.28
2022-08-24T14:22:34.259Z,114490.28
2022-08-24T14:24:50.033Z,114490.28
2022-08-24T14:27:01.182Z,114490.28
2022-08-24T14:29:30.947Z,114490.28
2022-08-24T14:31:34.863Z,114490.28
2022-08-24T14:33:46.183Z,114490.28
2022-08-24T14:36:10.325Z,114490.28
2022-08-24T14:38:34.671Z,114490.28
2022-08-24T14:40:57.490Z,114490.28
2022-08-24T14:43:01.247Z,114490.28
2022-08-24T14:45:14.454Z,114490.28
2022-08-24T14:47:25.743Z,114490.28
2022-08-24T14:49:37.453Z,114490.28
2022-08-24T14:51:45.046Z,114490.28
2022-08-24T14:53:51.624Z,114490.28
2022-08-24T14:56:16.162Z,114490.28
2022-08-24T14:58:42.659Z,114490.28
2022-08-24T15:00:50.738Z,114490.28
2022-08-24T15:03:18.700Z,114490.28
2022-08-24T15:05:23.366Z,114490.28
2022-08-24T15:07:33.319Z,114490.28
2022-08-24T15:09:39.552Z,114490.28
2022-08-24T15:11:47.233Z,114490.28
2022-08-24T15:14:02.473Z,114490.28
2022-08-24T15:16:12.281Z,114490.28
2022-08-24T15:18:18.944Z,114490.28
2022-08-24T15:20:30.059Z,114490.28
2022-08-24T15:22:49.041Z,114490.28
2022-08-24T15:25:10.354Z,114490.28
2022-08-24T15:27:20.960Z,114490.28
2022-08-24T15:29:26.814Z,114490.28
2022-08-24T15:31:30.903Z,114490.28
2022-08-24T15:33:37.734Z,114490.28
2022-08-24T15:35:47.374Z,114490.28
2022-08-24T15:37:50.926Z,114490.28
2022-08-24T15:39:54.721Z,114490.28
2022-08-24T15:41:59.052Z,114490.28
2022-08-24T15:44:08.603Z,114490.28
2022-08-24T15:46:12.998Z,114490.28
2022-08-24T15:48:18.893Z,114490.28
2022-08-24T15:50:25.629Z,114490.28
2022-08-24T15:52:47.961Z,114490.28
2022-08-24T15:55:12.035Z,114490.28
2022-08-24T15:57:18.271Z,114490.28
2022-08-24T15:59:33.931Z,114490.28
2022-08-24T16:01:58.287Z,114490.28
2022-08-24T16:04:02.024Z,114490.28
2022-08-24T16:06:18.671Z,114490.28
2022-08-24T16:08:22.960Z,114490.28
2022-08-24T16:10:49.564Z,114490.28
2022-08-24T16:12:55.980Z,114490.28
2022-08-24T16:15:20.888Z,114490.28
2022-08-24T16:17:34.355Z,114490.28
2022-08-24T16:19:39.118Z,114490.28
2022-08-24T16:21:54.549Z,114490.28
2022-08-24T16:24:03.333Z,114490.28
2022-08-24T16:26:25.693Z,114490.28
2022-08-24T16:28:31.009Z,114490.28
2022-08-24T16:30:43.678Z,114490.28
2022-08-24T16:32:58.221Z,114490.28
2022-08-24T16:35:14.366Z,114490.28
2022-08-24T16:37:19.439Z,114490.28
2022-08-24T16:39:25.612Z,114490.28
2022-08-24T16:41:29.420Z,114490.28
2022-08-24T16:43:33.440Z,114490.28
2022-08-24T16:45:37.215Z,114490.28
2022-08-24T16:47:40.852Z,114490.28
2022-08-24T16:49:45.220Z,114490.28
2022-08-24T16:51:49.244Z,114490.28
2022-08-24T16:53:53.290Z,114490.28
2022-08-24T16:55:57.289Z,114490.28
2022-08-24T16:58:02.808Z,114490.28
2022-08-24T17:00:10.531Z,114490.28
2022-08-24T17:02:14.207Z,114490.28
2022-08-24T17:04:18.691Z,114490.28
2022-08-24T17:06:22.921Z,114490.28
2022-08-24T17:08:28.740Z,114490.28
2022-08-24T17:10:36.094Z,114490.28
2022-08-24T17:12:43.325Z,114490.28
2022-08-24T17:14:47.466Z,114490.28
2022-08-24T17:16:51.462Z,114490.28
2022-08-24T17:18:55.206Z,114490.28
2022-08-24T17:20:59.311Z,114490.28
2022-08-24T17:23:03.499Z,114490.28
2022-08-24T17:25:10.567Z,114490.28
2022-08-24T17:27:15.681Z,114490.28
2022-08-24T17:29:23.340Z,114490.28
2022-08-24T17:31:27.006Z,114490.28
2022-08-24T17:33:31.084Z,114490.28
2022-08-24T17:35:34.788Z,114490.28
2022-08-24T17:37:42.034Z,114490.28
2022-08-24T17:39:45.915Z,114490.28
2022-08-24T17:41:52.008Z,114490.28
2022-08-24T17:43:55.601Z,114490.28
2022-08-24T17:46:00.494Z,114490.28
2022-08-24T17:48:07.120Z,114490.28
2022-08-24T17:50:12.310Z,114490.28
2022-08-24T17:52:15.812Z,114490.28
2022-08-24T17:54:19.596Z,114490.28
2022-08-24T17:56:23.664Z,114490.28
2022-08-24T17:58:27.625Z,114490.28
2022-08-24T18:00:31.124Z,114490.28
2022-08-24T18:02:36.277Z,114490.28
2022-08-24T18:04:40.797Z,114490.28
2022-08-24T18:06:45.142Z,114490.28
2022-08-24T18:08:49.752Z,114490.28
2022-08-24T18:10:54.491Z,114490.28
2022-08-24T18:12:59.029Z,114490.28
2022-08-24T18:15:02.894Z,114490.28
2022-08-24T18:17:08.059Z,114490.28
2022-08-24T18:19:13.734Z,114490.28
2022-08-24T18:21:17.930Z,114490.28
2022-08-24T18:23:24.683Z,114490.28
2022-08-24T18:25:29.351Z,114490.28
2022-08-24T18:27:34.581Z,114490.28
2022-08-24T18:29:42.913Z,114490.28
2022-08-24T18:31:47.431Z,114490.28
2022-08-24T18:33:51.605Z,114490.28
2022-08-24T18:35:55.178Z,114490.28
2022-08-24T18:38:02.375Z,114490.28
2022-08-24T18:40:06.806Z,114490.28
2022-08-24T18:42:12.950Z,114490.28
2022-08-24T18:44:19.212Z,114490.28
2022-08-24T18:46:29.743Z,114490.28
2022-08-24T18:48:33.747Z,114490.28
2022-08-24T18:50:42.246Z,114490.28
2022-08-24T18:52:46.231Z,114490.28
2022-08-24T18:54:51.400Z,114490.28
2022-08-24T18:56:55.001Z,114490.28
2022-08-24T18:58:59.304Z,114490.28
2022-08-24T19:01:03.832Z,114490.28
2022-08-24T19:03:09.098Z,114490.28
2022-08-24T19:05:12.833Z,114490.28
2022-08-24T19:07:16.428Z,114490.28
2022-08-24T19:09:20.917Z,114490.28
2022-08-24T19:11:25.162Z,114490.28
2022-08-24T19:13:29.402Z,114490.28
2022-08-24T19:15:40.239Z,114490.28
2022-08-24T19:17:46.157Z,114490.28
2022-08-24T19:19:49.676Z,114490.28
2022-08-24T19:21:54.010Z,114490.28
2022-08-24T19:23:59.333Z,114490.28
2022-08-24T19:26:03.871Z,114490.28
2022-08-24T19:28:08.085Z,114490.28
2022-08-24T19:30:12.447Z,114490.28
2022-08-24T19:32:22.003Z,114490.28
2022-08-24T19:34:26.176Z,114490.28
2022-08-24T19:36:33.300Z,114490.28
2022-08-24T19:38:38.000Z,114490.28
2022-08-24T19:40:48.039Z,114490.28
2022-08-24T19:42:54.775Z,114490.28
2022-08-24T19:45:18.447Z,114490.28
2022-08-24T19:47:22.025Z,114490.28
2022-08-24T19:49:25.591Z,114490.28
2022-08-24T19:51:29.431Z,114490.28
2022-08-24T19:53:34.103Z,114490.28
2022-08-24T19:55:38.165Z,114490.28
2022-08-24T19:57:43.444Z,114490.28
2022-08-24T19:59:47.839Z,114490.28
2022-08-24T20:01:51.584Z,114490.28
2022-08-24T20:03:55.504Z,114490.28
2022-08-24T20:05:59.068Z,114490.28
2022-08-24T20:08:05.222Z,114490.28
2022-08-24T20:10:12.753Z,114490.28
2022-08-24T20:12:16.974Z,114490.28
2022-08-24T20:14:20.637Z,114490.28
2022-08-24T20:16:26.321Z,114490.28
2022-08-24T20:18:32.713Z,114490.28
2022-08-24T20:20:36.647Z,114490.28
2022-08-24T20:22:43.177Z,114490.28
2022-08-24T20:24:47.249Z,114490.28
2022-08-24T20:26:50.711Z,114490.28
2022-08-24T20:28:55.338Z,114490.28
2022-08-24T20:30:58.970Z,114490.28
2022-08-24T20:33:03.124Z,114490.28
2022-08-24T20:35:07.452Z,114490.28
2022-08-24T20:37:13.296Z,114490.28
2022-08-24T20:41:43.631Z,114490.28
2022-08-24T20:43:47.380Z,114490.28
2022-08-24T20:45:52.956Z,114490.28
2022-08-24T20:47:57.237Z,114490.28
2022-08-24T20:50:02.635Z,114490.28
2022-08-24T20:52:06.109Z,114490.28
2022-08-24T20:54:09.936Z,114490.28
2022-08-24T20:56:18.083Z,114490.28
2022-08-24T20:58:22.813Z,114490.28
2022-08-24T21:00:26.512Z,114490.28
2022-08-24T21:02:30.303Z,114490.28
2022-08-24T21:04:33.835Z,114490.28
2022-08-24T21:06:38.188Z,114490.28
2022-08-24T21:08:46.799Z,114490.28
2022-08-24T21:10:52.211Z,114490.28
2022-08-24T21:12:56.408Z,114490.28
2022-08-24T21:15:00.145Z,114490.28
2022-08-24T21:17:05.828Z,114490.28
2022-08-24T21:19:14.515Z,114490.28
2022-08-24T21:21:21.015Z,114490.28
2022-08-24T21:23:24.958Z,114490.28
2022-08-24T21:25:28.759Z,114490.28
2022-08-24T21:27:33.617Z,114490.28
2022-08-24T21:29:37.257Z,114490.28
2022-08-24T21:31:41.216Z,114490.28
2022-08-24T21:34:06.190Z,114490.28
2022-08-24T21:36:10.192Z,114490.28
2022-08-24T21:38:14.985Z,114490.28
2022-08-24T21:40:19.036Z,114490.28
2022-08-24T21:42:23.081Z,114490.28
2022-08-24T21:44:27.481Z,114490.28
2022-08-24T21:46:33.716Z,114490.28
2022-08-24T21:48:37.961Z,114490.28
2022-08-24T21:50:41.576Z,114490.28
2022-08-24T21:52:46.220Z,114490.28
2022-08-24T21:54:57.393Z,114490.28
2022-08-24T21:57:02.915Z,114490.28
2022-08-24T21:59:07.755Z,114490.28
2022-08-24T22:01:11.554Z,114490.28
2022-08-24T22:03:15.106Z,114490.28
2022-08-24T22:05:21.584Z,114490.28
2022-08-24T22:07:28.522Z,114490.28
2022-08-24T22:09:32.089Z,114490.28
2022-08-24T22:11:36.327Z,114490.28
2022-08-24T22:13:40.812Z,114490.28
2022-08-24T22:15:48.440Z,114490.28
2022-08-24T22:17:53.882Z,114490.28
2022-08-24T22:19:59.191Z,114490.28
2022-08-24T22:22:03.471Z,114490.28
2022-08-24T22:24:07.658Z,114490.28
2022-08-24T22:26:11.710Z,114490.28
2022-08-24T22:28:15.191Z,114490.28
2022-08-24T22:30:19.725Z,114490.28
2022-08-24T22:32:23.503Z,114490.28
2022-08-24T22:34:29.548Z,114490.28
2022-08-24T22:36:33.190Z,114490.28
2022-08-24T22:38:36.880Z,114490.28
2022-08-24T22:40:40.729Z,114490.28
2022-08-24T22:42:44.603Z,114490.28
2022-08-24T22:44:48.349Z,114490.28
2022-08-24T22:46:53.905Z,114490.28
2022-08-24T22:48:57.465Z,114490.28
2022-08-24T22:51:02.548Z,114490.28
2022-08-24T22:53:06.613Z,114490.28
2022-08-24T22:55:10.789Z,114490.28
2022-08-24T22:57:19.790Z,114490.28
2022-08-24T22:59:28.010Z,114490.28
2022-08-24T23:01:36.129Z,114490.28
2022-08-24T23:03:39.840Z,114490.28
2022-08-24T23:05:43.524Z,114490.28
2022-08-24T23:07:47.267Z,114490.28
2022-08-24T23:09:50.902Z,114490.28
2022-08-24T23:11:54.514Z,114490.28
2022-08-24T23:13:59.222Z,114490.28
2022-08-24T23:16:08.142Z,114490.28
2022-08-24T23:18:29.777Z,114490.28
2022-08-24T23:20:33.609Z,114490.28
2022-08-24T23:22:39.739Z,114490.28
2022-08-24T23:24:44.808Z,114490.28
2022-08-24T23:26:48.907Z,114490.28
2022-08-24T23:28:52.527Z,114490.28
2022-08-24T23:30:56.100Z,114490.28
2022-08-24T23:33:00.086Z,114490.28
2022-08-24T23:35:03.724Z,114490.28
2022-08-24T23:37:07.484Z,114490.28
2022-08-24T23:39:11.706Z,114490.28
2022-08-24T23:41:16.716Z,114490.28
2022-08-24T23:43:20.494Z,114490.28
2022-08-24T23:45:28.309Z,114490.28
2022-08-24T23:47:35.681Z,114490.28
2022-08-24T23:49:45.179Z,114490.28
2022-08-24T23:51:48.780Z,114490.28
2022-08-24T23:53:53.130Z,114490.28
2022-08-24T23:55:57.298Z,114490.28
2022-08-24T23:58:01.195Z,114490.28
